sensor_id;sensor_type;location;lat;lon;timestamp;pressure;altitude;pressure_sealevel;temperature;humidity
19210;BME280;9738;51.654;14.238;2023-05-08T00:01:33;101566.50;;;4.87;100.00
19210;BME280;9738;51.654;14.238;2023-05-08T00:03:59;101565.16;;;4.80;100.00
19210;BME280;9738;51.654;14.238;2023-05-08T00:06:25;101560.22;;;4.74;100.00
19210;BME280;9738;51.654;14.238;2023-05-08T00:08:54;101565.84;;;4.68;100.00
19210;BME280;9738;51.654;14.238;2023-05-08T00:11:19;101568.94;;;4.60;100.00
19210;BME280;9738;51.654;14.238;2023-05-08T00:13:45;101569.34;;;4.53;100.00
19210;BME280;9738;51.654;14.238;2023-05-08T00:16:12;101561.75;;;4.47;100.00
19210;BME280;9738;51.654;14.238;2023-05-08T00:18:38;101564.75;;;4.41;100.00
19210;BME280;9738;51.654;14.238;2023-05-08T00:21:04;101564.28;;;4.32;100.00
19210;BME280;9738;51.654;14.238;2023-05-08T00:23:31;101566.41;;;4.26;100.00
19210;BME280;9738;51.654;14.238;2023-05-08T00:25:58;101569.38;;;4.20;100.00
19210;BME280;9738;51.654;14.238;2023-05-08T00:28:24;101577.59;;;4.15;100.00
19210;BME280;9738;51.654;14.238;2023-05-08T00:30:50;101574.47;;;4.07;100.00
19210;BME280;9738;51.654;14.238;2023-05-08T00:33:16;101574.84;;;4.01;100.00
19210;BME280;9738;51.654;14.238;2023-05-08T00:35:42;101565.44;;;3.95;100.00
19210;BME280;9738;51.654;14.238;2023-05-08T00:38:09;101570.19;;;3.89;100.00
19210;BME280;9738;51.654;14.238;2023-05-08T00:40:35;101574.94;;;3.82;100.00
19210;BME280;9738;51.654;14.238;2023-05-08T00:43:01;101576.78;;;3.80;100.00
19210;BME280;9738;51.654;14.238;2023-05-08T00:45:33;101574.41;;;3.75;100.00
19210;BME280;9738;51.654;14.238;2023-05-08T00:48:00;101568.66;;;3.67;100.00
19210;BME280;9738;51.654;14.238;2023-05-08T00:50:26;101569.06;;;3.60;100.00
19210;BME280;9738;51.654;14.238;2023-05-08T00:52:52;101564.94;;;3.54;100.00
19210;BME280;9738;51.654;14.238;2023-05-08T00:55:19;101567.78;;;3.49;100.00
19210;BME280;9738;51.654;14.238;2023-05-08T00:57:46;101570.75;;;3.43;100.00
19210;BME280;9738;51.654;14.238;2023-05-08T01:00:15;101576.28;;;3.39;100.00
19210;BME280;9738;51.654;14.238;2023-05-08T01:02:42;101577.53;;;3.32;100.00
19210;BME280;9738;51.654;14.238;2023-05-08T01:05:08;101577.84;;;3.25;100.00
19210;BME280;9738;51.654;14.238;2023-05-08T01:07:34;101579.00;;;3.20;100.00
19210;BME280;9738;51.654;14.238;2023-05-08T01:10:00;101583.56;;;3.16;100.00
19210;BME280;9738;51.654;14.238;2023-05-08T01:13:05;101581.16;;;3.12;100.00
19210;BME280;9738;51.654;14.238;2023-05-08T01:15:41;101585.88;;;3.05;100.00
19210;BME280;9738;51.654;14.238;2023-05-08T01:18:17;101579.81;;;3.03;100.00
19210;BME280;9738;51.654;14.238;2023-05-08T01:32:40;101577.13;;;2.86;100.00
19210;BME280;9738;51.654;14.238;2023-05-08T01:35:20;101579.56;;;2.90;100.00
19210;BME280;9738;51.654;14.238;2023-05-08T01:38:09;101575.94;;;2.93;100.00
19210;BME280;9738;51.654;14.238;2023-05-08T01:41:22;101578.41;;;2.96;100.00
19210;BME280;9738;51.654;14.238;2023-05-08T01:44:05;101569.72;;;2.94;100.00
19210;BME280;9738;51.654;14.238;2023-05-08T01:46:35;101568.00;;;2.93;100.00
19210;BME280;9738;51.654;14.238;2023-05-08T01:49:18;101564.44;;;2.94;100.00
19210;BME280;9738;51.654;14.238;2023-05-08T01:51:55;101562.75;;;2.93;100.00
19210;BME280;9738;51.654;14.238;2023-05-08T01:54:25;101557.59;;;2.90;100.00
19210;BME280;9738;51.654;14.238;2023-05-08T01:56:55;101564.88;;;2.85;100.00
19210;BME280;9738;51.654;14.238;2023-05-08T01:59:23;101562.59;;;2.77;100.00
19210;BME280;9738;51.654;14.238;2023-05-08T02:01:53;101565.69;;;2.68;100.00
19210;BME280;9738;51.654;14.238;2023-05-08T02:04:21;101557.22;;;2.61;100.00
19210;BME280;9738;51.654;14.238;2023-05-08T02:06:50;101567.06;;;2.58;100.00
19210;BME280;9738;51.654;14.238;2023-05-08T02:09:17;101562.63;;;2.58;100.00
19210;BME280;9738;51.654;14.238;2023-05-08T02:11:44;101567.06;;;2.58;100.00
19210;BME280;9738;51.654;14.238;2023-05-08T02:14:12;101573.09;;;2.60;100.00
19210;BME280;9738;51.654;14.238;2023-05-08T02:16:40;101566.94;;;2.61;100.00
19210;BME280;9738;51.654;14.238;2023-05-08T02:19:09;101566.00;;;2.62;100.00
19210;BME280;9738;51.654;14.238;2023-05-08T02:21:37;101563.28;;;2.63;100.00
19210;BME280;9738;51.654;14.238;2023-05-08T02:24:04;101565.91;;;2.63;100.00
19210;BME280;9738;51.654;14.238;2023-05-08T02:26:31;101560.63;;;2.63;100.00
19210;BME280;9738;51.654;14.238;2023-05-08T02:29:01;101564.97;;;2.64;100.00
19210;BME280;9738;51.654;14.238;2023-05-08T02:31:28;101570.25;;;2.64;100.00
19210;BME280;9738;51.654;14.238;2023-05-08T02:33:54;101567.63;;;2.64;100.00
19210;BME280;9738;51.654;14.238;2023-05-08T02:36:24;101566.69;;;2.65;100.00
19210;BME280;9738;51.654;14.238;2023-05-08T02:38:53;101560.47;;;2.66;100.00
19210;BME280;9738;51.654;14.238;2023-05-08T02:41:21;101562.06;;;2.70;100.00
19210;BME280;9738;51.654;14.238;2023-05-08T02:43:50;101558.34;;;2.75;100.00
19210;BME280;9738;51.654;14.238;2023-05-08T02:46:28;101558.34;;;2.75;100.00
19210;BME280;9738;51.654;14.238;2023-05-08T02:49:00;101560.06;;;2.76;100.00
19210;BME280;9738;51.654;14.238;2023-05-08T02:51:34;101560.06;;;2.76;100.00
19210;BME280;9738;51.654;14.238;2023-05-08T02:54:08;101553.06;;;2.75;100.00
19210;BME280;9738;51.654;14.238;2023-05-08T02:56:54;101562.78;;;2.74;100.00
19210;BME280;9738;51.654;14.238;2023-05-08T02:59:30;101572.47;;;2.74;100.00
19210;BME280;9738;51.654;14.238;2023-05-08T03:02:11;101568.91;;;2.75;100.00
19210;BME280;9738;51.654;14.238;2023-05-08T03:04:48;101572.47;;;2.74;100.00
19210;BME280;9738;51.654;14.238;2023-05-08T03:07:18;101581.25;;;2.74;100.00
19210;BME280;9738;51.654;14.238;2023-05-08T03:09:49;101582.13;;;2.73;100.00
19210;BME280;9738;51.654;14.238;2023-05-08T03:12:21;101584.84;;;2.71;100.00
19210;BME280;9738;51.654;14.238;2023-05-08T03:14:56;101577.88;;;2.70;100.00
19210;BME280;9738;51.654;14.238;2023-05-08T03:17:25;101584.84;;;2.71;100.00
19210;BME280;9738;51.654;14.238;2023-05-08T03:19:55;101577.97;;;2.69;100.00
19210;BME280;9738;51.654;14.238;2023-05-08T03:22:22;101580.38;;;2.74;100.00
19210;BME280;9738;51.654;14.238;2023-05-08T03:24:50;101586.44;;;2.76;100.00
19210;BME280;9738;51.654;14.238;2023-05-08T03:27:18;101587.13;;;2.79;100.00
19210;BME280;9738;51.654;14.238;2023-05-08T03:29:45;101588.84;;;2.80;100.00
19210;BME280;9738;51.654;14.238;2023-05-08T03:32:12;101594.06;;;2.82;100.00
19210;BME280;9738;51.654;14.238;2023-05-08T03:34:39;101595.00;;;2.81;100.00
19210;BME280;9738;51.654;14.238;2023-05-08T03:37:05;101596.78;;;2.80;100.00
19210;BME280;9738;51.654;14.238;2023-05-08T03:39:31;101592.28;;;2.82;100.00
19210;BME280;9738;51.654;14.238;2023-05-08T03:41:58;101599.25;;;2.83;100.00
19210;BME280;9738;51.654;14.238;2023-05-08T03:44:24;101598.41;;;2.83;100.00
19210;BME280;9738;51.654;14.238;2023-05-08T03:46:51;101598.41;;;2.83;100.00
19210;BME280;9738;51.654;14.238;2023-05-08T03:49:22;101592.28;;;2.82;100.00
19210;BME280;9738;51.654;14.238;2023-05-08T03:51:50;101601.81;;;2.85;100.00
19210;BME280;9738;51.654;14.238;2023-05-08T03:54:16;101592.19;;;2.84;100.00
19210;BME280;9738;51.654;14.238;2023-05-08T03:56:43;101599.13;;;2.86;100.00
19210;BME280;9738;51.654;14.238;2023-05-08T03:59:16;101596.41;;;2.88;100.00
19210;BME280;9738;51.654;14.238;2023-05-08T04:01:58;101593.59;;;2.91;100.00
19210;BME280;9738;51.654;14.238;2023-05-08T04:04:32;101596.09;;;2.94;100.00
19210;BME280;9738;51.654;14.238;2023-05-08T04:07:42;101602.78;;;3.01;100.00
19210;BME280;9738;51.654;14.238;2023-05-08T04:10:15;101603.56;;;3.03;100.00
19210;BME280;9738;51.654;14.238;2023-05-08T04:12:56;101602.50;;;3.07;100.00
19210;BME280;9738;51.654;14.238;2023-05-08T04:15:28;101610.34;;;3.09;100.00
19210;BME280;9738;51.654;14.238;2023-05-08T04:17:58;101609.09;;;3.16;100.00
19210;BME280;9738;51.654;14.238;2023-05-08T04:20:26;101609.66;;;3.22;100.00
19210;BME280;9738;51.654;14.238;2023-05-08T04:22:54;101607.47;;;3.31;100.00
19210;BME280;9738;51.654;14.238;2023-05-08T04:25:22;101609.69;;;3.40;100.00
19210;BME280;9738;51.654;14.238;2023-05-08T04:27:48;101610.16;;;3.48;100.00
19210;BME280;9738;51.654;14.238;2023-05-08T04:30:20;101607.97;;;3.56;100.00
19210;BME280;9738;51.654;14.238;2023-05-08T04:32:46;101613.66;;;3.66;100.00
19210;BME280;9738;51.654;14.238;2023-05-08T04:35:12;101613.25;;;3.73;100.00
19210;BME280;9738;51.654;14.238;2023-05-08T04:37:40;101620.72;;;3.83;100.00
19210;BME280;9738;51.654;14.238;2023-05-08T04:40:08;101622.88;;;3.92;100.00
19210;BME280;9738;51.654;14.238;2023-05-08T04:42:35;101624.16;;;4.00;100.00
19210;BME280;9738;51.654;14.238;2023-05-08T04:45:04;101629.09;;;4.08;100.00
19210;BME280;9738;51.654;14.238;2023-05-08T04:47:30;101627.72;;;4.17;100.00
19210;BME280;9738;51.654;14.238;2023-05-08T04:49:56;101631.00;;;4.22;100.00
19210;BME280;9738;51.654;14.238;2023-05-08T04:52:24;101640.97;;;4.32;100.00
19210;BME280;9738;51.654;14.238;2023-05-08T04:54:50;101644.19;;;4.39;100.00
19210;BME280;9738;51.654;14.238;2023-05-08T04:57:16;101648.88;;;4.50;100.00
19210;BME280;9738;51.654;14.238;2023-05-08T04:59:42;101649.31;;;4.58;100.00
19210;BME280;9738;51.654;14.238;2023-05-08T05:02:08;101652.22;;;4.69;100.00
19210;BME280;9738;51.654;14.238;2023-05-08T05:04:35;101649.00;;;4.80;100.00
19210;BME280;9738;51.654;14.238;2023-05-08T05:07:02;101643.47;;;4.84;100.00
19210;BME280;9738;51.654;14.238;2023-05-08T05:09:28;101642.94;;;4.94;100.00
19210;BME280;9738;51.654;14.238;2023-05-08T05:11:54;101649.34;;;5.05;100.00
19210;BME280;9738;51.654;14.238;2023-05-08T05:14:20;101652.06;;;5.20;100.00
19210;BME280;9738;51.654;14.238;2023-05-08T05:16:46;101649.81;;;5.43;100.00
19210;BME280;9738;51.654;14.238;2023-05-08T05:19:12;101647.59;;;5.66;100.00
19210;BME280;9738;51.654;14.238;2023-05-08T05:21:38;101651.56;;;5.89;100.00
19210;BME280;9738;51.654;14.238;2023-05-08T05:24:05;101655.91;;;6.06;100.00
19210;BME280;9738;51.654;14.238;2023-05-08T05:26:31;101646.81;;;6.24;100.00
19210;BME280;9738;51.654;14.238;2023-05-08T05:28:57;101646.53;;;6.43;100.00
19210;BME280;9738;51.654;14.238;2023-05-08T05:31:23;101645.56;;;6.58;100.00
19210;BME280;9738;51.654;14.238;2023-05-08T05:33:49;101643.47;;;6.77;100.00
19210;BME280;9738;51.654;14.238;2023-05-08T05:36:15;101640.84;;;7.04;100.00
19210;BME280;9738;51.654;14.238;2023-05-08T05:38:41;101648.69;;;7.20;100.00
19210;BME280;9738;51.654;14.238;2023-05-08T05:41:07;101636.94;;;7.37;100.00
19210;BME280;9738;51.654;14.238;2023-05-08T05:43:33;101643.13;;;7.50;100.00
19210;BME280;9738;51.654;14.238;2023-05-08T05:46:03;101650.09;;;7.66;100.00
19210;BME280;9738;51.654;14.238;2023-05-08T05:48:30;101647.47;;;7.78;100.00
19210;BME280;9738;51.654;14.238;2023-05-08T05:50:56;101644.09;;;7.89;100.00
19210;BME280;9738;51.654;14.238;2023-05-08T05:53:22;101646.00;;;8.12;100.00
19210;BME280;9738;51.654;14.238;2023-05-08T05:55:48;101651.22;;;8.27;100.00
19210;BME280;9738;51.654;14.238;2023-05-08T05:58:14;101662.31;;;8.21;100.00
19210;BME280;9738;51.654;14.238;2023-05-08T06:00:42;101657.19;;;8.30;100.00
19210;BME280;9738;51.654;14.238;2023-05-08T06:03:08;101661.69;;;8.43;100.00
19210;BME280;9738;51.654;14.238;2023-05-08T06:05:36;101657.84;;;8.59;100.00
19210;BME280;9738;51.654;14.238;2023-05-08T06:08:02;101664.75;;;8.75;100.00
19210;BME280;9738;51.654;14.238;2023-05-08T06:10:28;101666.75;;;8.71;100.00
19210;BME280;9738;51.654;14.238;2023-05-08T06:12:54;101663.59;;;9.03;100.00
19210;BME280;9738;51.654;14.238;2023-05-08T06:15:21;101670.97;;;9.36;100.00
19210;BME280;9738;51.654;14.238;2023-05-08T06:17:47;101672.16;;;9.56;100.00
19210;BME280;9738;51.654;14.238;2023-05-08T06:20:13;101664.66;;;9.72;100.00
19210;BME280;9738;51.654;14.238;2023-05-08T06:22:39;101675.91;;;9.88;100.00
19210;BME280;9738;51.654;14.238;2023-05-08T06:25:06;101675.59;;;10.15;100.00
19210;BME280;9738;51.654;14.238;2023-05-08T06:27:34;101680.75;;;10.29;100.00
19210;BME280;9738;51.654;14.238;2023-05-08T06:30:00;101678.81;;;10.32;100.00
19210;BME280;9738;51.654;14.238;2023-05-08T06:32:26;101673.00;;;10.60;100.00
19210;BME280;9738;51.654;14.238;2023-05-08T06:34:52;101672.16;;;10.82;79.04
19210;BME280;9738;51.654;14.238;2023-05-08T06:37:18;101669.09;;;10.98;77.69
19210;BME280;9738;51.654;14.238;2023-05-08T06:39:44;101668.63;;;10.93;75.10
19210;BME280;9738;51.654;14.238;2023-05-08T06:42:10;101668.47;;;11.05;78.17
19210;BME280;9738;51.654;14.238;2023-05-08T06:44:36;101680.63;;;11.21;71.31
19210;BME280;9738;51.654;14.238;2023-05-08T06:47:02;101668.81;;;11.12;72.13
19210;BME280;9738;51.654;14.238;2023-05-08T06:49:28;101674.91;;;11.14;73.06
19210;BME280;9738;51.654;14.238;2023-05-08T06:51:55;101676.75;;;11.14;71.58
19210;BME280;9738;51.654;14.238;2023-05-08T06:54:21;101678.00;;;10.76;71.81
19210;BME280;9738;51.654;14.238;2023-05-08T06:56:47;101673.72;;;10.73;72.62
19210;BME280;9738;51.654;14.238;2023-05-08T06:59:13;101671.78;;;10.98;71.52
19210;BME280;9738;51.654;14.238;2023-05-08T07:01:38;101668.38;;;10.96;70.91
19210;BME280;9738;51.654;14.238;2023-05-08T07:04:05;101672.16;;;10.82;72.74
19210;BME280;9738;51.654;14.238;2023-05-08T07:06:30;101674.72;;;10.83;71.78
19210;BME280;9738;51.654;14.238;2023-05-08T07:08:56;101679.13;;;11.28;67.96
19210;BME280;9738;51.654;14.238;2023-05-08T07:11:23;101671.94;;;11.40;68.69
19210;BME280;9738;51.654;14.238;2023-05-08T07:13:49;101684.22;;;11.31;66.28
19210;BME280;9738;51.654;14.238;2023-05-08T07:16:15;101678.78;;;11.21;68.40
19210;BME280;9738;51.654;14.238;2023-05-08T07:18:42;101678.31;;;10.94;66.81
19210;BME280;9738;51.654;14.238;2023-05-08T07:21:08;101686.13;;;10.97;68.20
19210;BME280;9738;51.654;14.238;2023-05-08T07:23:34;101677.72;;;11.45;67.47
19210;BME280;9738;51.654;14.238;2023-05-08T07:26:01;101672.09;;;11.91;65.95
19210;BME280;9738;51.654;14.238;2023-05-08T07:28:27;101672.50;;;11.86;64.03
19210;BME280;9738;51.654;14.238;2023-05-08T07:30:54;101672.16;;;12.01;67.46
19210;BME280;9738;51.654;14.238;2023-05-08T07:33:20;101674.91;;;12.31;64.73
19210;BME280;9738;51.654;14.238;2023-05-08T07:35:47;101671.66;;;12.58;62.21
19210;BME280;9738;51.654;14.238;2023-05-08T07:38:12;101665.50;;;12.67;63.93
19210;BME280;9738;51.654;14.238;2023-05-08T07:40:39;101671.72;;;12.78;65.56
19210;BME280;9738;51.654;14.238;2023-05-08T07:43:05;101674.34;;;12.98;60.48
19210;BME280;9738;51.654;14.238;2023-05-08T07:45:30;101678.47;;;13.12;60.79
19210;BME280;9738;51.654;14.238;2023-05-08T07:47:57;101696.75;;;12.88;61.48
19210;BME280;9738;51.654;14.238;2023-05-08T07:50:24;101682.97;;;12.62;61.01
19210;BME280;9738;51.654;14.238;2023-05-08T07:52:50;101677.22;;;12.45;61.84
19210;BME280;9738;51.654;14.238;2023-05-08T07:55:18;101678.28;;;12.33;64.95
19210;BME280;9738;51.654;14.238;2023-05-08T07:57:44;101679.97;;;12.86;61.43
19210;BME280;9738;51.654;14.238;2023-05-08T08:00:12;101674.53;;;13.16;58.78
19210;BME280;9738;51.654;14.238;2023-05-08T08:02:43;101673.13;;;13.12;59.52
19210;BME280;9738;51.654;14.238;2023-05-08T08:05:09;101677.75;;;13.01;59.62
19210;BME280;9738;51.654;14.238;2023-05-08T08:07:34;101679.72;;;13.08;60.27
19210;BME280;9738;51.654;14.238;2023-05-08T08:10:02;101668.44;;;13.14;60.73
19210;BME280;9738;51.654;14.238;2023-05-08T08:12:29;101677.44;;;13.44;59.17
19210;BME280;9738;51.654;14.238;2023-05-08T08:14:55;101678.97;;;13.27;56.89
19210;BME280;9738;51.654;14.238;2023-05-08T08:17:22;101667.16;;;13.09;57.98
19210;BME280;9738;51.654;14.238;2023-05-08T08:19:48;101670.34;;;12.83;59.16
19210;BME280;9738;51.654;14.238;2023-05-08T08:22:14;101674.72;;;13.34;59.55
19210;BME280;9738;51.654;14.238;2023-05-08T08:24:41;101661.31;;;13.73;55.74
19210;BME280;9738;51.654;14.238;2023-05-08T08:27:06;101669.91;;;14.05;53.03
19210;BME280;9738;51.654;14.238;2023-05-08T08:29:32;101668.53;;;13.92;53.10
19210;BME280;9738;51.654;14.238;2023-05-08T08:31:59;101663.59;;;13.58;54.89
19210;BME280;9738;51.654;14.238;2023-05-08T08:34:25;101658.94;;;13.31;53.46
19210;BME280;9738;51.654;14.238;2023-05-08T08:36:51;101662.03;;;13.46;55.52
19210;BME280;9738;51.654;14.238;2023-05-08T08:39:17;101662.31;;;13.33;55.70
19210;BME280;9738;51.654;14.238;2023-05-08T08:41:43;101660.19;;;13.46;56.58
19210;BME280;9738;51.654;14.238;2023-05-08T08:44:09;101656.78;;;13.93;57.66
19210;BME280;9738;51.654;14.238;2023-05-08T08:46:39;101662.66;;;14.35;55.31
19210;BME280;9738;51.654;14.238;2023-05-08T08:49:08;101664.66;;;14.23;52.71
19210;BME280;9738;51.654;14.238;2023-05-08T08:54:20;101662.63;;;14.54;52.11
19210;BME280;9738;51.654;14.238;2023-05-08T08:56:47;101658.81;;;14.57;50.62
19210;BME280;9738;51.654;14.238;2023-05-08T08:59:15;101653.44;;;14.47;52.08
19210;BME280;9738;51.654;14.238;2023-05-08T09:01:44;101655.03;;;14.77;51.67
19210;BME280;9738;51.654;14.238;2023-05-08T09:04:12;101649.44;;;15.16;50.46
19210;BME280;9738;51.654;14.238;2023-05-08T09:06:38;101644.91;;;15.34;53.34
19210;BME280;9738;51.654;14.238;2023-05-08T09:09:05;101643.47;;;15.76;53.28
19210;BME280;9738;51.654;14.238;2023-05-08T09:11:32;101649.59;;;16.04;46.07
19210;BME280;9738;51.654;14.238;2023-05-08T09:13:58;101639.75;;;16.20;48.18
19210;BME280;9738;51.654;14.238;2023-05-08T09:16:24;101648.19;;;16.26;46.45
19210;BME280;9738;51.654;14.238;2023-05-08T09:18:50;101646.25;;;16.10;48.24
19210;BME280;9738;51.654;14.238;2023-05-08T09:21:16;101645.03;;;16.04;44.38
19210;BME280;9738;51.654;14.238;2023-05-08T09:24:03;101642.28;;;16.22;44.20
19210;BME280;9738;51.654;14.238;2023-05-08T09:29:08;101644.69;;;15.81;44.14
19210;BME280;9738;51.654;14.238;2023-05-08T09:31:36;101639.00;;;15.66;45.36
19210;BME280;9738;51.654;14.238;2023-05-08T09:34:08;101642.03;;;15.89;45.64
19210;BME280;9738;51.654;14.238;2023-05-08T09:36:34;101626.56;;;15.65;42.89
19210;BME280;9738;51.654;14.238;2023-05-08T09:39:01;101630.22;;;16.08;46.23
19210;BME280;9738;51.654;14.238;2023-05-08T09:41:27;101636.16;;;16.38;43.92
19210;BME280;9738;51.654;14.238;2023-05-08T09:44:04;101637.63;;;16.66;42.56
19210;BME280;9738;51.654;14.238;2023-05-08T09:46:32;101633.19;;;16.83;43.23
19210;BME280;9738;51.654;14.238;2023-05-08T09:49:02;101621.44;;;17.00;42.85
19210;BME280;9738;51.654;14.238;2023-05-08T09:51:30;101632.44;;;17.23;43.78
19210;BME280;9738;51.654;14.238;2023-05-08T09:53:57;101623.38;;;17.41;41.83
19210;BME280;9738;51.654;14.238;2023-05-08T09:56:35;101621.00;;;17.46;41.70
19210;BME280;9738;51.654;14.238;2023-05-08T09:59:02;101631.66;;;17.39;44.77
19210;BME280;9738;51.654;14.238;2023-05-08T10:01:34;101612.78;;;17.72;41.92
19210;BME280;9738;51.654;14.238;2023-05-08T10:04:02;101616.31;;;17.80;42.14
19210;BME280;9738;51.654;14.238;2023-05-08T10:06:31;101610.56;;;17.92;42.06
19210;BME280;9738;51.654;14.238;2023-05-08T10:09:10;101606.31;;;18.05;42.16
19210;BME280;9738;51.654;14.238;2023-05-08T10:11:38;101605.97;;;18.17;42.83
19210;BME280;9738;51.654;14.238;2023-05-08T10:14:04;101623.03;;;18.17;39.81
19210;BME280;9738;51.654;14.238;2023-05-08T10:16:36;101606.97;;;18.24;40.98
19210;BME280;9738;51.654;14.238;2023-05-08T10:19:11;101611.19;;;18.18;39.23
19210;BME280;9738;51.654;14.238;2023-05-08T10:21:40;101602.38;;;18.24;39.51
19210;BME280;9738;51.654;14.238;2023-05-08T10:24:25;101602.72;;;18.29;40.00
19210;BME280;9738;51.654;14.238;2023-05-08T10:27:16;101586.31;;;18.31;39.66
19210;BME280;9738;51.654;14.238;2023-05-08T10:29:52;101588.53;;;18.27;39.47
19210;BME280;9738;51.654;14.238;2023-05-08T10:32:19;101585.84;;;18.27;36.80
19210;BME280;9738;51.654;14.238;2023-05-08T10:34:51;101580.97;;;18.15;38.28
19210;BME280;9738;51.654;14.238;2023-05-08T10:37:17;101590.91;;;18.22;37.87
19210;BME280;9738;51.654;14.238;2023-05-08T10:39:44;101587.56;;;18.20;37.21
19210;BME280;9738;51.654;14.238;2023-05-08T10:42:12;101583.81;;;18.21;37.53
19210;BME280;9738;51.654;14.238;2023-05-08T10:44:39;101592.47;;;18.08;37.49
19210;BME280;9738;51.654;14.238;2023-05-08T10:47:15;101592.34;;;17.77;40.01
19210;BME280;9738;51.654;14.238;2023-05-08T10:53:06;101574.53;;;18.16;39.12
19210;BME280;9738;51.654;14.238;2023-05-08T10:55:37;101578.78;;;18.10;40.06
19210;BME280;9738;51.654;14.238;2023-05-08T10:58:34;101582.34;;;18.50;38.24
19210;BME280;9738;51.654;14.238;2023-05-08T11:03:30;101576.41;;;18.71;39.08
19210;BME280;9738;51.654;14.238;2023-05-08T11:05:57;101588.84;;;18.41;38.37
19210;BME280;9738;51.654;14.238;2023-05-08T11:08:25;101581.03;;;18.46;38.36
19210;BME280;9738;51.654;14.238;2023-05-08T11:13:31;101560.41;;;19.15;36.11
19210;BME280;9738;51.654;14.238;2023-05-08T11:15:57;101567.72;;;19.06;35.30
19210;BME280;9738;51.654;14.238;2023-05-08T11:18:24;101566.22;;;19.04;37.17
19210;BME280;9738;51.654;14.238;2023-05-08T11:23:21;101565.13;;;18.90;36.74
19210;BME280;9738;51.654;14.238;2023-05-08T11:26:02;101558.09;;;19.04;36.91
19210;BME280;9738;51.654;14.238;2023-05-08T11:28:39;101558.69;;;19.14;35.23
19210;BME280;9738;51.654;14.238;2023-05-08T11:31:07;101554.53;;;19.03;36.48
19210;BME280;9738;51.654;14.238;2023-05-08T11:33:34;101549.38;;;19.16;34.56
19210;BME280;9738;51.654;14.238;2023-05-08T11:36:19;101551.81;;;19.26;36.84
19210;BME280;9738;51.654;14.238;2023-05-08T11:39:07;101559.59;;;19.29;35.77
19210;BME280;9738;51.654;14.238;2023-05-08T11:41:33;101560.38;;;19.38;35.18
19210;BME280;9738;51.654;14.238;2023-05-08T11:46:38;101553.13;;;19.15;33.98
19210;BME280;9738;51.654;14.238;2023-05-08T11:49:09;101560.84;;;18.64;35.82
19210;BME280;9738;51.654;14.238;2023-05-08T11:51:36;101568.97;;;18.56;37.81
19210;BME280;9738;51.654;14.238;2023-05-08T11:54:03;101559.69;;;18.51;35.50
19210;BME280;9738;51.654;14.238;2023-05-08T11:56:30;101548.38;;;18.86;35.72
19210;BME280;9738;51.654;14.238;2023-05-08T11:59:03;101540.03;;;18.96;35.17
19210;BME280;9738;51.654;14.238;2023-05-08T12:01:31;101536.19;;;19.13;36.02
19210;BME280;9738;51.654;14.238;2023-05-08T12:04:05;101535.22;;;19.29;32.70
19210;BME280;9738;51.654;14.238;2023-05-08T12:06:33;101540.69;;;19.21;34.96
19210;BME280;9738;51.654;14.238;2023-05-08T12:09:00;101542.94;;;19.40;36.39
19210;BME280;9738;51.654;14.238;2023-05-08T12:11:26;101544.16;;;19.53;32.18
19210;BME280;9738;51.654;14.238;2023-05-08T12:13:53;101542.97;;;19.55;35.96
19210;BME280;9738;51.654;14.238;2023-05-08T12:16:21;101540.38;;;19.39;34.71
19210;BME280;9738;51.654;14.238;2023-05-08T12:18:51;101544.00;;;18.85;35.92
19210;BME280;9738;51.654;14.238;2023-05-08T12:21:18;101551.66;;;18.34;36.98
19210;BME280;9738;51.654;14.238;2023-05-08T12:23:44;101540.09;;;18.49;36.92
19210;BME280;9738;51.654;14.238;2023-05-08T12:26:10;101535.69;;;18.87;37.88
19210;BME280;9738;51.654;14.238;2023-05-08T12:28:37;101542.09;;;18.55;33.95
19210;BME280;9738;51.654;14.238;2023-05-08T12:31:04;101539.63;;;18.76;36.96
19210;BME280;9738;51.654;14.238;2023-05-08T12:33:32;101535.00;;;19.16;33.71
19210;BME280;9738;51.654;14.238;2023-05-08T12:36:00;101531.84;;;19.27;35.31
19210;BME280;9738;51.654;14.238;2023-05-08T12:38:26;101536.97;;;19.22;34.43
19210;BME280;9738;51.654;14.238;2023-05-08T12:40:52;101538.25;;;19.34;34.49
19210;BME280;9738;51.654;14.238;2023-05-08T12:43:30;101530.66;;;19.30;36.19
19210;BME280;9738;51.654;14.238;2023-05-08T12:45:56;101529.47;;;19.09;35.76
19210;BME280;9738;51.654;14.238;2023-05-08T12:48:23;101524.63;;;19.20;33.61
19210;BME280;9738;51.654;14.238;2023-05-08T12:50:49;101518.28;;;19.27;36.16
19210;BME280;9738;51.654;14.238;2023-05-08T12:53:17;101511.59;;;19.38;34.79
19210;BME280;9738;51.654;14.238;2023-05-08T12:55:52;101518.81;;;19.45;33.81
19210;BME280;9738;51.654;14.238;2023-05-08T12:58:18;101520.66;;;19.07;33.13
19210;BME280;9738;51.654;14.238;2023-05-08T13:00:50;101522.34;;;18.85;35.86
19210;BME280;9738;51.654;14.238;2023-05-08T13:03:27;101513.50;;;18.60;35.49
19210;BME280;9738;51.654;14.238;2023-05-08T13:05:55;101514.63;;;18.74;34.04
19210;BME280;9738;51.654;14.238;2023-05-08T13:08:35;101510.84;;;19.06;33.29
19210;BME280;9738;51.654;14.238;2023-05-08T13:11:03;101505.97;;;19.25;35.28
19210;BME280;9738;51.654;14.238;2023-05-08T13:13:31;101504.41;;;19.30;34.24
19210;BME280;9738;51.654;14.238;2023-05-08T13:15:59;101503.16;;;19.56;34.08
19210;BME280;9738;51.654;14.238;2023-05-08T13:18:27;101499.75;;;19.62;29.21
19210;BME280;9738;51.654;14.238;2023-05-08T13:20:53;101503.56;;;19.67;31.12
19210;BME280;9738;51.654;14.238;2023-05-08T13:23:19;101493.69;;;19.14;28.81
19210;BME280;9738;51.654;14.238;2023-05-08T13:25:46;101491.28;;;18.73;29.71
19210;BME280;9738;51.654;14.238;2023-05-08T13:28:12;101493.88;;;18.67;30.42
19210;BME280;9738;51.654;14.238;2023-05-08T13:30:37;101492.66;;;18.69;32.18